Ordot, Guam
Current Conditions -  °F | °C
As of 4:54 PM on Sunday 23 Nov 2014 (Local Time) from PGUM Reporting Station
Scattered Clouds Scattered Clouds  
Wind Chill: 80°   Ceiling: Unl
Heat Index: 85°   Visibility: 10mi
Dew Point: 75°   Wind: 7mph
Humidity: 85%   Direction: 140°SE
Pressure: 29.86"   Gusts: NA
Location:  13.4744°N, 144.7478°E
Report Text: PGUM 230654Z 14006KT 10SM FEW018 SCT040 27/24 A2986 RMK AO2 RAE03 SLP104 P0000 T02670239
Loading
Personal Weather Stations






























Interactive Weather Map New forecast layout! Learn more

10-Day Weather Forecast

Advertisements
Track Severe Weather on mobile